| Date | Time | Temp. (oF) | Dew Point (oF) | Rel. Hum. (%) | Press. (in.) | Wind Dir. | Wind Speed (mph) | Hourly Rainfall (in.) |
|
|---|---|---|---|---|---|---|---|---|---|
| 1 | 12/12 | 00:00 | 34 | 32 | 96 | 30.43 | NNE | 0 | 0.00 |
| 2 | 12/11 | 23:00 | 37 | 35 | 95 | 30.42 | NNE | 0 | 0.00 |
| 3 | 12/11 | 22:00 | 39 | 36 | 92 | 30.41 | NNE | 2 | 0.00 |
| 4 | 12/11 | 21:00 | 41 | 38 | 90 | 30.40 | NNE | 1 | 0.00 |
| 5 | 12/11 | 20:00 | 42 | 38 | 89 | 30.39 | NNW | 2 | 0.00 |
| 6 | 12/11 | 19:00 | 45 | 40 | 85 | 30.37 | NW | 0 | 0.00 |
| 7 | 12/11 | 18:00 | 48 | 42 | 80 | 30.35 | WNW | 1 | 0.00 |
| 8 | 12/11 | 17:00 | 52 | 43 | 72 | 30.33 | WNW | 1 | 0.00 |
| 9 | 12/11 | 16:00 | 54 | 42 | 64 | 30.29 | NNW | 2 | 0.00 |
| 10 | 12/11 | 15:00 | 55 | 43 | 65 | 30.27 | NNE | 1 | 0.00 |
| 11 | 12/11 | 14:00 | 54 | 42 | 65 | 30.27 | E | 3 | 0.00 |
| 12 | 12/11 | 13:00 | 52 | 43 | 72 | 30.29 | NNW | 1 | 0.00 |
| 13 | 12/11 | 12:00 | 50 | 43 | 78 | 30.30 | E | 2 | 0.00 |
| 14 | 12/11 | 11:00 | 46 | 45 | 100 | 30.31 | NNW | 4 | 0.00 |
| 15 | 12/11 | 10:00 | 42 | 41 | 100 | 30.32 | NNW | 3 | 0.00 |
| 16 | 12/11 | 09:00 | 40 | 40 | 100 | 30.31 | NNW | 0 | 0.00 |
| 17 | 12/11 | 08:00 | 39 | 39 | 100 | 30.30 | N | 4 | 0.00 |
| 18 | 12/11 | 07:00 | 39 | 39 | 100 | 30.30 | NNW | 1 | 0.01 |
| 19 | 12/11 | 06:00 | 39 | 39 | 100 | 30.29 | NW | 2 | 0.03 |
| 20 | 12/11 | 05:00 | 39 | 38 | 99 | 30.29 | S | 1 | 0.01 |
| 21 | 12/11 | 04:00 | 38 | 37 | 97 | 30.27 | NW | 1 | 0.00 |
| 22 | 12/11 | 03:00 | 38 | 36 | 96 | 30.27 | NE | 0 | 0.00 |
| 23 | 12/11 | 02:00 | 38 | 36 | 95 | 30.28 | N | 0 | 0.00 |
| 24 | 12/11 | 01:00 | 37 | 35 | 95 | 30.29 | N | 2 | 0.00 |